sensor_id;sensor_type;location;lat;lon;timestamp;P1;durP1;ratioP1;P2;durP2;ratioP2
48181;SDS011;33976;47.436;18.876;2022-08-07T00:01:16;3.92;;;2.22;;
48181;SDS011;33976;47.436;18.876;2022-08-07T00:04:05;3.65;;;2.40;;
48181;SDS011;33976;47.436;18.876;2022-08-07T00:06:38;3.75;;;2.33;;
48181;SDS011;33976;47.436;18.876;2022-08-07T00:09:19;4.32;;;2.47;;
48181;SDS011;33976;47.436;18.876;2022-08-07T00:11:50;3.72;;;2.55;;
48181;SDS011;33976;47.436;18.876;2022-08-07T00:14:25;3.22;;;2.12;;
48181;SDS011;33976;47.436;18.876;2022-08-07T00:17:00;3.83;;;2.10;;
48181;SDS011;33976;47.436;18.876;2022-08-07T00:19:30;4.32;;;2.30;;
48181;SDS011;33976;47.436;18.876;2022-08-07T00:22:18;4.82;;;2.72;;
48181;SDS011;33976;47.436;18.876;2022-08-07T00:25:05;3.92;;;2.45;;
48181;SDS011;33976;47.436;18.876;2022-08-07T00:27:43;3.60;;;2.40;;
48181;SDS011;33976;47.436;18.876;2022-08-07T00:30:21;3.50;;;2.00;;
48181;SDS011;33976;47.436;18.876;2022-08-07T00:32:55;3.65;;;1.90;;
48181;SDS011;33976;47.436;18.876;2022-08-07T00:35:25;3.85;;;2.45;;
48181;SDS011;33976;47.436;18.876;2022-08-07T00:37:57;3.85;;;2.25;;
48181;SDS011;33976;47.436;18.876;2022-08-07T00:40:26;4.22;;;2.33;;
48181;SDS011;33976;47.436;18.876;2022-08-07T00:43:07;4.68;;;2.75;;
48181;SDS011;33976;47.436;18.876;2022-08-07T00:45:57;3.97;;;2.35;;
48181;SDS011;33976;47.436;18.876;2022-08-07T00:48:26;4.85;;;2.80;;
48181;SDS011;33976;47.436;18.876;2022-08-07T00:50:59;4.53;;;2.70;;
48181;SDS011;33976;47.436;18.876;2022-08-07T00:53:27;4.12;;;2.60;;
48181;SDS011;33976;47.436;18.876;2022-08-07T00:56:16;5.60;;;2.60;;
48181;SDS011;33976;47.436;18.876;2022-08-07T00:58:44;4.35;;;2.50;;
48181;SDS011;33976;47.436;18.876;2022-08-07T01:01:13;3.75;;;2.33;;
48181;SDS011;33976;47.436;18.876;2022-08-07T01:03:42;5.40;;;3.15;;
48181;SDS011;33976;47.436;18.876;2022-08-07T01:06:29;4.87;;;3.00;;
48181;SDS011;33976;47.436;18.876;2022-08-07T01:08:58;4.03;;;2.58;;
48181;SDS011;33976;47.436;18.876;2022-08-07T01:11:29;4.72;;;2.75;;
48181;SDS011;33976;47.436;18.876;2022-08-07T01:14:21;4.30;;;2.35;;
48181;SDS011;33976;47.436;18.876;2022-08-07T01:19:23;4.43;;;2.65;;
48181;SDS011;33976;47.436;18.876;2022-08-07T01:21:58;4.40;;;2.72;;
48181;SDS011;33976;47.436;18.876;2022-08-07T01:24:29;5.12;;;3.12;;
48181;SDS011;33976;47.436;18.876;2022-08-07T01:26:58;3.97;;;2.33;;
48181;SDS011;33976;47.436;18.876;2022-08-07T01:29:28;4.32;;;2.40;;
48181;SDS011;33976;47.436;18.876;2022-08-07T01:31:58;4.72;;;2.80;;
48181;SDS011;33976;47.436;18.876;2022-08-07T01:34:32;4.25;;;2.92;;
48181;SDS011;33976;47.436;18.876;2022-08-07T01:37:01;5.18;;;3.00;;
48181;SDS011;33976;47.436;18.876;2022-08-07T01:39:29;4.07;;;2.78;;
48181;SDS011;33976;47.436;18.876;2022-08-07T01:42:14;4.70;;;2.90;;
48181;SDS011;33976;47.436;18.876;2022-08-07T01:45:03;4.72;;;2.85;;
48181;SDS011;33976;47.436;18.876;2022-08-07T01:47:45;3.95;;;2.62;;
48181;SDS011;33976;47.436;18.876;2022-08-07T01:50:35;5.00;;;2.92;;
48181;SDS011;33976;47.436;18.876;2022-08-07T01:53:09;4.43;;;2.85;;
48181;SDS011;33976;47.436;18.876;2022-08-07T01:55:50;4.75;;;2.75;;
48181;SDS011;33976;47.436;18.876;2022-08-07T01:58:22;5.85;;;3.25;;
48181;SDS011;33976;47.436;18.876;2022-08-07T02:01:02;4.53;;;2.85;;
48181;SDS011;33976;47.436;18.876;2022-08-07T02:03:46;3.90;;;2.40;;
48181;SDS011;33976;47.436;18.876;2022-08-07T02:06:18;3.78;;;2.28;;
48181;SDS011;33976;47.436;18.876;2022-08-07T02:08:59;4.95;;;2.53;;
48181;SDS011;33976;47.436;18.876;2022-08-07T02:11:35;4.30;;;2.97;;
48181;SDS011;33976;47.436;18.876;2022-08-07T02:14:25;4.80;;;2.78;;
48181;SDS011;33976;47.436;18.876;2022-08-07T02:17:09;4.97;;;3.22;;
48181;SDS011;33976;47.436;18.876;2022-08-07T02:19:55;7.18;;;3.22;;
48181;SDS011;33976;47.436;18.876;2022-08-07T02:22:37;5.00;;;2.92;;
48181;SDS011;33976;47.436;18.876;2022-08-07T02:27:47;4.32;;;2.95;;
48181;SDS011;33976;47.436;18.876;2022-08-07T02:30:20;4.57;;;2.78;;
48181;SDS011;33976;47.436;18.876;2022-08-07T02:32:49;4.85;;;2.95;;
48181;SDS011;33976;47.436;18.876;2022-08-07T02:35:35;4.72;;;3.05;;
48181;SDS011;33976;47.436;18.876;2022-08-07T02:38:28;4.85;;;2.87;;
48181;SDS011;33976;47.436;18.876;2022-08-07T02:40:59;4.97;;;2.72;;
48181;SDS011;33976;47.436;18.876;2022-08-07T02:43:31;4.90;;;3.00;;
48181;SDS011;33976;47.436;18.876;2022-08-07T02:46:00;5.12;;;3.15;;
48181;SDS011;33976;47.436;18.876;2022-08-07T02:48:33;4.43;;;2.95;;
48181;SDS011;33976;47.436;18.876;2022-08-07T02:51:02;3.97;;;2.65;;
48181;SDS011;33976;47.436;18.876;2022-08-07T02:53:53;5.57;;;3.08;;
48181;SDS011;33976;47.436;18.876;2022-08-07T02:56:23;5.55;;;3.17;;
48181;SDS011;33976;47.436;18.876;2022-08-07T02:58:54;5.00;;;3.00;;
48181;SDS011;33976;47.436;18.876;2022-08-07T03:01:27;6.30;;;3.00;;
48181;SDS011;33976;47.436;18.876;2022-08-07T03:04:06;5.87;;;3.15;;
48181;SDS011;33976;47.436;18.876;2022-08-07T03:06:39;5.40;;;3.22;;
48181;SDS011;33976;47.436;18.876;2022-08-07T03:09:12;4.78;;;3.15;;
48181;SDS011;33976;47.436;18.876;2022-08-07T03:12:02;5.07;;;3.05;;
48181;SDS011;33976;47.436;18.876;2022-08-07T03:14:33;8.00;;;3.47;;
48181;SDS011;33976;47.436;18.876;2022-08-07T03:17:06;4.40;;;2.55;;
48181;SDS011;33976;47.436;18.876;2022-08-07T03:19:35;5.70;;;3.08;;
48181;SDS011;33976;47.436;18.876;2022-08-07T03:22:04;5.18;;;2.67;;
48181;SDS011;33976;47.436;18.876;2022-08-07T03:24:33;4.15;;;2.70;;
48181;SDS011;33976;47.436;18.876;2022-08-07T03:27:03;5.50;;;3.53;;
48181;SDS011;33976;47.436;18.876;2022-08-07T03:29:45;4.87;;;2.95;;
48181;SDS011;33976;47.436;18.876;2022-08-07T03:32:20;5.05;;;3.30;;
48181;SDS011;33976;47.436;18.876;2022-08-07T03:34:50;5.03;;;2.83;;
48181;SDS011;33976;47.436;18.876;2022-08-07T03:37:42;5.03;;;3.08;;
48181;SDS011;33976;47.436;18.876;2022-08-07T03:40:20;4.30;;;2.92;;
48181;SDS011;33976;47.436;18.876;2022-08-07T03:42:53;4.75;;;2.70;;
48181;SDS011;33976;47.436;18.876;2022-08-07T03:45:22;4.15;;;2.80;;
48181;SDS011;33976;47.436;18.876;2022-08-07T03:47:58;5.30;;;3.40;;
48181;SDS011;33976;47.436;18.876;2022-08-07T03:50:27;6.72;;;3.25;;
48181;SDS011;33976;47.436;18.876;2022-08-07T03:52:56;5.47;;;3.05;;
48181;SDS011;33976;47.436;18.876;2022-08-07T03:55:27;4.37;;;2.97;;
48181;SDS011;33976;47.436;18.876;2022-08-07T03:58:16;4.37;;;2.80;;
48181;SDS011;33976;47.436;18.876;2022-08-07T04:01:05;4.87;;;2.83;;
48181;SDS011;33976;47.436;18.876;2022-08-07T04:03:38;4.32;;;2.90;;
48181;SDS011;33976;47.436;18.876;2022-08-07T04:06:21;4.22;;;2.65;;
48181;SDS011;33976;47.436;18.876;2022-08-07T04:09:06;4.53;;;3.00;;
48181;SDS011;33976;47.436;18.876;2022-08-07T04:11:45;6.20;;;2.83;;
48181;SDS011;33976;47.436;18.876;2022-08-07T04:14:34;4.70;;;2.92;;
48181;SDS011;33976;47.436;18.876;2022-08-07T04:17:12;4.68;;;3.15;;
48181;SDS011;33976;47.436;18.876;2022-08-07T04:19:48;4.05;;;2.65;;
48181;SDS011;33976;47.436;18.876;2022-08-07T04:22:22;4.68;;;2.67;;
48181;SDS011;33976;47.436;18.876;2022-08-07T04:24:56;3.83;;;2.60;;
48181;SDS011;33976;47.436;18.876;2022-08-07T04:27:28;4.60;;;3.10;;
48181;SDS011;33976;47.436;18.876;2022-08-07T04:30:11;4.50;;;2.70;;
48181;SDS011;33976;47.436;18.876;2022-08-07T04:33:00;4.85;;;3.20;;
48181;SDS011;33976;47.436;18.876;2022-08-07T04:35:35;3.90;;;2.42;;
48181;SDS011;33976;47.436;18.876;2022-08-07T04:38:06;4.93;;;2.80;;
48181;SDS011;33976;47.436;18.876;2022-08-07T04:40:40;4.30;;;2.70;;
48181;SDS011;33976;47.436;18.876;2022-08-07T04:43:20;5.57;;;3.08;;
48181;SDS011;33976;47.436;18.876;2022-08-07T04:46:26;5.12;;;3.33;;
48181;SDS011;33976;47.436;18.876;2022-08-07T04:54:52;4.35;;;2.80;;
48181;SDS011;33976;47.436;18.876;2022-08-07T04:57:26;5.20;;;3.17;;
48181;SDS011;33976;47.436;18.876;2022-08-07T05:00:20;4.53;;;3.25;;
48181;SDS011;33976;47.436;18.876;2022-08-07T05:03:02;5.45;;;3.33;;
48181;SDS011;33976;47.436;18.876;2022-08-07T05:06:05;5.10;;;2.90;;
48181;SDS011;33976;47.436;18.876;2022-08-07T05:08:57;5.47;;;3.28;;
48181;SDS011;33976;47.436;18.876;2022-08-07T05:11:39;7.30;;;2.85;;
48181;SDS011;33976;47.436;18.876;2022-08-07T05:14:27;4.90;;;3.10;;
48181;SDS011;33976;47.436;18.876;2022-08-07T05:17:20;4.75;;;3.00;;
48181;SDS011;33976;47.436;18.876;2022-08-07T05:20:10;5.03;;;3.17;;
48181;SDS011;33976;47.436;18.876;2022-08-07T05:22:40;6.18;;;3.20;;
48181;SDS011;33976;47.436;18.876;2022-08-07T05:25:11;6.57;;;3.10;;
48181;SDS011;33976;47.436;18.876;2022-08-07T05:28:01;5.78;;;2.90;;
48181;SDS011;33976;47.436;18.876;2022-08-07T05:30:50;4.57;;;3.00;;
48181;SDS011;33976;47.436;18.876;2022-08-07T05:33:19;4.50;;;2.67;;
48181;SDS011;33976;47.436;18.876;2022-08-07T05:35:51;3.78;;;2.47;;
48181;SDS011;33976;47.436;18.876;2022-08-07T05:38:22;5.18;;;3.10;;
48181;SDS011;33976;47.436;18.876;2022-08-07T05:41:11;4.32;;;2.70;;
48181;SDS011;33976;47.436;18.876;2022-08-07T05:43:45;4.35;;;2.60;;
48181;SDS011;33976;47.436;18.876;2022-08-07T05:46:35;4.95;;;2.80;;
48181;SDS011;33976;47.436;18.876;2022-08-07T05:49:05;4.87;;;2.78;;
48181;SDS011;33976;47.436;18.876;2022-08-07T05:51:43;3.90;;;2.40;;
48181;SDS011;33976;47.436;18.876;2022-08-07T05:54:16;3.30;;;2.25;;
48181;SDS011;33976;47.436;18.876;2022-08-07T05:57:06;4.90;;;3.08;;
48181;SDS011;33976;47.436;18.876;2022-08-07T05:59:36;3.47;;;2.65;;
48181;SDS011;33976;47.436;18.876;2022-08-07T06:02:25;4.47;;;2.67;;
48181;SDS011;33976;47.436;18.876;2022-08-07T06:04:58;3.75;;;2.62;;
48181;SDS011;33976;47.436;18.876;2022-08-07T06:07:42;4.18;;;2.00;;
48181;SDS011;33976;47.436;18.876;2022-08-07T06:10:30;4.25;;;2.30;;
48181;SDS011;33976;47.436;18.876;2022-08-07T06:13:02;3.45;;;2.40;;
48181;SDS011;33976;47.436;18.876;2022-08-07T06:15:33;3.65;;;2.40;;
48181;SDS011;33976;47.436;18.876;2022-08-07T06:18:12;4.55;;;2.60;;
48181;SDS011;33976;47.436;18.876;2022-08-07T06:20:42;4.05;;;2.53;;
48181;SDS011;33976;47.436;18.876;2022-08-07T06:23:31;4.12;;;2.60;;
48181;SDS011;33976;47.436;18.876;2022-08-07T06:26:19;3.33;;;2.10;;
48181;SDS011;33976;47.436;18.876;2022-08-07T06:28:54;3.78;;;2.60;;
48181;SDS011;33976;47.436;18.876;2022-08-07T06:31:28;3.65;;;2.53;;
48181;SDS011;33976;47.436;18.876;2022-08-07T06:34:15;3.15;;;2.40;;
48181;SDS011;33976;47.436;18.876;2022-08-07T06:36:47;3.85;;;2.45;;
48181;SDS011;33976;47.436;18.876;2022-08-07T06:39:20;5.78;;;2.62;;
48181;SDS011;33976;47.436;18.876;2022-08-07T06:42:23;3.75;;;2.80;;
48181;SDS011;33976;47.436;18.876;2022-08-07T06:45:03;4.05;;;2.62;;
48181;SDS011;33976;47.436;18.876;2022-08-07T06:47:38;4.05;;;2.60;;
48181;SDS011;33976;47.436;18.876;2022-08-07T06:50:25;4.10;;;2.47;;
48181;SDS011;33976;47.436;18.876;2022-08-07T06:52:57;3.60;;;2.60;;
48181;SDS011;33976;47.436;18.876;2022-08-07T06:55:31;3.55;;;2.60;;
48181;SDS011;33976;47.436;18.876;2022-08-07T06:58:20;4.22;;;2.42;;
48181;SDS011;33976;47.436;18.876;2022-08-07T07:00:55;4.78;;;2.70;;
48181;SDS011;33976;47.436;18.876;2022-08-07T07:03:24;4.45;;;3.03;;
48181;SDS011;33976;47.436;18.876;2022-08-07T07:06:12;3.30;;;2.40;;
48181;SDS011;33976;47.436;18.876;2022-08-07T07:08:50;4.15;;;2.83;;
48181;SDS011;33976;47.436;18.876;2022-08-07T07:11:18;4.40;;;2.40;;
48181;SDS011;33976;47.436;18.876;2022-08-07T07:14:06;3.53;;;2.20;;
48181;SDS011;33976;47.436;18.876;2022-08-07T07:16:37;3.83;;;2.47;;
48181;SDS011;33976;47.436;18.876;2022-08-07T07:19:22;3.45;;;2.03;;
48181;SDS011;33976;47.436;18.876;2022-08-07T07:22:13;3.70;;;2.40;;
48181;SDS011;33976;47.436;18.876;2022-08-07T07:25:03;4.32;;;2.00;;
48181;SDS011;33976;47.436;18.876;2022-08-07T07:27:56;4.12;;;2.20;;
48181;SDS011;33976;47.436;18.876;2022-08-07T07:30:34;3.50;;;2.20;;
48181;SDS011;33976;47.436;18.876;2022-08-07T07:33:09;3.55;;;2.25;;
48181;SDS011;33976;47.436;18.876;2022-08-07T07:35:43;2.35;;;1.67;;
48181;SDS011;33976;47.436;18.876;2022-08-07T07:38:32;4.07;;;2.12;;
48181;SDS011;33976;47.436;18.876;2022-08-07T07:41:04;4.80;;;2.08;;
48181;SDS011;33976;47.436;18.876;2022-08-07T07:43:36;3.28;;;2.00;;
48181;SDS011;33976;47.436;18.876;2022-08-07T07:46:33;6.50;;;2.60;;
48181;SDS011;33976;47.436;18.876;2022-08-07T07:49:24;3.58;;;1.83;;
48181;SDS011;33976;47.436;18.876;2022-08-07T07:52:13;3.15;;;2.05;;
48181;SDS011;33976;47.436;18.876;2022-08-07T07:54:43;3.12;;;1.95;;
48181;SDS011;33976;47.436;18.876;2022-08-07T07:57:20;3.72;;;1.95;;
48181;SDS011;33976;47.436;18.876;2022-08-07T08:00:10;3.55;;;1.83;;
48181;SDS011;33976;47.436;18.876;2022-08-07T08:02:48;3.05;;;2.05;;
48181;SDS011;33976;47.436;18.876;2022-08-07T08:05:36;2.05;;;1.30;;
48181;SDS011;33976;47.436;18.876;2022-08-07T08:08:26;1.83;;;1.30;;
48181;SDS011;33976;47.436;18.876;2022-08-07T08:11:03;3.05;;;1.55;;
48181;SDS011;33976;47.436;18.876;2022-08-07T08:13:47;2.17;;;1.52;;
48181;SDS011;33976;47.436;18.876;2022-08-07T08:16:23;1.83;;;1.30;;
48181;SDS011;33976;47.436;18.876;2022-08-07T08:19:02;1.90;;;1.20;;
48181;SDS011;33976;47.436;18.876;2022-08-07T08:21:53;2.12;;;1.35;;
48181;SDS011;33976;47.436;18.876;2022-08-07T08:24:43;2.35;;;1.42;;
48181;SDS011;33976;47.436;18.876;2022-08-07T08:27:52;1.98;;;1.42;;
48181;SDS011;33976;47.436;18.876;2022-08-07T08:30:28;2.33;;;1.27;;
48181;SDS011;33976;47.436;18.876;2022-08-07T08:33:00;2.50;;;1.35;;
48181;SDS011;33976;47.436;18.876;2022-08-07T08:35:32;2.25;;;1.23;;
48181;SDS011;33976;47.436;18.876;2022-08-07T08:38:19;2.28;;;1.20;;
48181;SDS011;33976;47.436;18.876;2022-08-07T08:41:02;1.95;;;1.67;;
48181;SDS011;33976;47.436;18.876;2022-08-07T08:46:40;2.85;;;1.45;;
48181;SDS011;33976;47.436;18.876;2022-08-07T08:49:25;3.37;;;1.48;;
48181;SDS011;33976;47.436;18.876;2022-08-07T09:04:17;3.80;;;1.77;;
48181;SDS011;33976;47.436;18.876;2022-08-07T09:18:57;1.70;;;1.58;;
48181;SDS011;33976;47.436;18.876;2022-08-07T09:21:34;2.53;;;1.85;;
48181;SDS011;33976;47.436;18.876;2022-08-07T09:27:53;1.90;;;1.58;;
48181;SDS011;33976;47.436;18.876;2022-08-07T09:36:35;2.35;;;1.70;;
48181;SDS011;33976;47.436;18.876;2022-08-07T09:39:58;2.08;;;1.52;;
48181;SDS011;33976;47.436;18.876;2022-08-07T09:42:39;2.60;;;1.70;;
48181;SDS011;33976;47.436;18.876;2022-08-07T09:48:57;3.00;;;1.80;;
48181;SDS011;33976;47.436;18.876;2022-08-07T10:04:18;4.35;;;1.92;;
48181;SDS011;33976;47.436;18.876;2022-08-07T10:15:32;3.80;;;2.35;;
48181;SDS011;33976;47.436;18.876;2022-08-07T10:30:43;2.28;;;1.70;;
48181;SDS011;33976;47.436;18.876;2022-08-07T10:33:47;3.72;;;2.47;;
48181;SDS011;33976;47.436;18.876;2022-08-07T10:36:51;3.53;;;2.45;;
48181;SDS011;33976;47.436;18.876;2022-08-07T10:39:46;3.50;;;2.20;;
48181;SDS011;33976;47.436;18.876;2022-08-07T10:42:56;3.72;;;1.90;;
48181;SDS011;33976;47.436;18.876;2022-08-07T10:45:34;3.50;;;2.00;;
48181;SDS011;33976;47.436;18.876;2022-08-07T10:51:17;2.33;;;1.90;;
48181;SDS011;33976;47.436;18.876;2022-08-07T10:57:01;2.80;;;2.10;;
48181;SDS011;33976;47.436;18.876;2022-08-07T11:03:13;5.12;;;2.00;;
48181;SDS011;33976;47.436;18.876;2022-08-07T11:09:24;3.00;;;2.17;;
48181;SDS011;33976;47.436;18.876;2022-08-07T11:12:51;3.90;;;2.10;;
48181;SDS011;33976;47.436;18.876;2022-08-07T11:15:47;3.28;;;2.10;;
48181;SDS011;33976;47.436;18.876;2022-08-07T11:18:38;5.20;;;2.17;;
48181;SDS011;33976;47.436;18.876;2022-08-07T11:24:46;3.10;;;2.17;;
48181;SDS011;33976;47.436;18.876;2022-08-07T11:28:27;3.45;;;2.10;;
48181;SDS011;33976;47.436;18.876;2022-08-07T11:31:09;3.20;;;2.17;;
48181;SDS011;33976;47.436;18.876;2022-08-07T11:34:23;3.50;;;2.60;;
48181;SDS011;33976;47.436;18.876;2022-08-07T11:43:23;3.08;;;2.05;;
48181;SDS011;33976;47.436;18.876;2022-08-07T11:49:28;3.72;;;2.15;;
48181;SDS011;33976;47.436;18.876;2022-08-07T12:12:02;2.75;;;2.10;;
48181;SDS011;33976;47.436;18.876;2022-08-07T12:15:12;5.00;;;2.60;;
48181;SDS011;33976;47.436;18.876;2022-08-07T12:18:31;3.20;;;2.25;;
48181;SDS011;33976;47.436;18.876;2022-08-07T12:21:15;3.65;;;2.53;;
48181;SDS011;33976;47.436;18.876;2022-08-07T12:24:13;4.57;;;2.62;;
48181;SDS011;33976;47.436;18.876;2022-08-07T12:27:12;3.95;;;2.55;;
48181;SDS011;33976;47.436;18.876;2022-08-07T12:29:48;4.62;;;2.70;;
48181;SDS011;33976;47.436;18.876;2022-08-07T12:34:49;7.78;;;2.62;;
48181;SDS011;33976;47.436;18.876;2022-08-07T12:37:23;2.85;;;2.25;;
48181;SDS011;33976;47.436;18.876;2022-08-07T12:40:12;4.90;;;2.40;;
48181;SDS011;33976;47.436;18.876;2022-08-07T12:43:06;3.75;;;2.47;;
48181;SDS011;33976;47.436;18.876;2022-08-07T12:45:47;3.83;;;2.47;;
48181;SDS011;33976;47.436;18.876;2022-08-07T12:48:26;4.57;;;2.58;;
48181;SDS011;33976;47.436;18.876;2022-08-07T12:51:19;5.28;;;2.45;;
48181;SDS011;33976;47.436;18.876;2022-08-07T12:54:14;3.87;;;2.50;;
48181;SDS011;33976;47.436;18.876;2022-08-07T12:57:04;3.80;;;2.70;;
48181;SDS011;33976;47.436;18.876;2022-08-07T12:59:36;3.72;;;2.30;;
48181;SDS011;33976;47.436;18.876;2022-08-07T13:02:37;3.50;;;2.85;;
48181;SDS011;33976;47.436;18.876;2022-08-07T13:08:50;2.95;;;2.22;;
48181;SDS011;33976;47.436;18.876;2022-08-07T13:18:14;3.10;;;2.42;;
48181;SDS011;33976;47.436;18.876;2022-08-07T13:21:03;3.47;;;2.10;;
48181;SDS011;33976;47.436;18.876;2022-08-07T13:23:46;4.35;;;2.05;;
48181;SDS011;33976;47.436;18.876;2022-08-07T13:29:48;3.87;;;2.60;;
48181;SDS011;33976;47.436;18.876;2022-08-07T13:35:06;3.97;;;2.50;;
48181;SDS011;33976;47.436;18.876;2022-08-07T13:38:01;4.10;;;2.37;;
48181;SDS011;33976;47.436;18.876;2022-08-07T13:40:34;2.90;;;2.12;;
48181;SDS011;33976;47.436;18.876;2022-08-07T13:43:25;3.50;;;2.40;;
48181;SDS011;33976;47.436;18.876;2022-08-07T13:45:54;3.33;;;2.20;;
48181;SDS011;33976;47.436;18.876;2022-08-07T13:48:45;3.42;;;2.33;;
48181;SDS011;33976;47.436;18.876;2022-08-07T13:51:29;3.40;;;2.20;;
48181;SDS011;33976;47.436;18.876;2022-08-07T13:54:17;3.90;;;2.37;;
48181;SDS011;33976;47.436;18.876;2022-08-07T13:56:51;5.57;;;2.20;;
48181;SDS011;33976;47.436;18.876;2022-08-07T13:59:31;5.00;;;2.47;;
48181;SDS011;33976;47.436;18.876;2022-08-07T14:02:04;2.83;;;2.20;;
48181;SDS011;33976;47.436;18.876;2022-08-07T14:07:21;3.28;;;2.20;;
48181;SDS011;33976;47.436;18.876;2022-08-07T14:09:54;5.68;;;2.25;;
48181;SDS011;33976;47.436;18.876;2022-08-07T14:12:54;11.57;;;2.28;;
48181;SDS011;33976;47.436;18.876;2022-08-07T14:15:31;3.08;;;2.12;;
48181;SDS011;33976;47.436;18.876;2022-08-07T14:18:49;5.45;;;2.10;;
48181;SDS011;33976;47.436;18.876;2022-08-07T14:21:10;5.03;;;2.40;;
48181;SDS011;33976;47.436;18.876;2022-08-07T14:24:03;3.90;;;1.87;;
48181;SDS011;33976;47.436;18.876;2022-08-07T14:26:38;3.03;;;2.08;;
48181;SDS011;33976;47.436;18.876;2022-08-07T14:29:18;3.22;;;2.20;;
48181;SDS011;33976;47.436;18.876;2022-08-07T14:32:08;3.53;;;2.03;;
48181;SDS011;33976;47.436;18.876;2022-08-07T14:34:39;3.65;;;2.17;;
48181;SDS011;33976;47.436;18.876;2022-08-07T14:37:15;2.92;;;2.00;;
48181;SDS011;33976;47.436;18.876;2022-08-07T14:39:44;2.67;;;1.90;;
48181;SDS011;33976;47.436;18.876;2022-08-07T14:42:34;3.75;;;2.15;;
48181;SDS011;33976;47.436;18.876;2022-08-07T14:45:27;2.53;;;1.87;;
48181;SDS011;33976;47.436;18.876;2022-08-07T14:48:29;2.58;;;2.00;;
48181;SDS011;33976;47.436;18.876;2022-08-07T14:51:23;3.10;;;2.15;;
48181;SDS011;33976;47.436;18.876;2022-08-07T14:54:15;3.87;;;2.35;;
48181;SDS011;33976;47.436;18.876;2022-08-07T14:56:59;2.85;;;2.00;;
48181;SDS011;33976;47.436;18.876;2022-08-07T14:59:30;3.92;;;2.00;;
48181;SDS011;33976;47.436;18.876;2022-08-07T15:02:22;3.35;;;2.20;;
48181;SDS011;33976;47.436;18.876;2022-08-07T15:05:01;4.47;;;2.03;;
48181;SDS011;33976;47.436;18.876;2022-08-07T15:07:46;4.18;;;1.95;;
48181;SDS011;33976;47.436;18.876;2022-08-07T15:10:22;7.68;;;2.22;;
48181;SDS011;33976;47.436;18.876;2022-08-07T15:13:15;3.28;;;2.25;;
48181;SDS011;33976;47.436;18.876;2022-08-07T15:15:45;2.72;;;2.03;;
48181;SDS011;33976;47.436;18.876;2022-08-07T15:18:36;3.35;;;2.20;;
48181;SDS011;33976;47.436;18.876;2022-08-07T15:21:13;3.22;;;2.20;;
48181;SDS011;33976;47.436;18.876;2022-08-07T15:24:05;3.80;;;2.35;;
48181;SDS011;33976;47.436;18.876;2022-08-07T15:29:41;3.42;;;2.15;;
48181;SDS011;33976;47.436;18.876;2022-08-07T15:32:31;2.97;;;1.90;;
48181;SDS011;33976;47.436;18.876;2022-08-07T15:35:11;3.65;;;2.35;;
48181;SDS011;33976;47.436;18.876;2022-08-07T15:37:54;2.95;;;2.05;;
48181;SDS011;33976;47.436;18.876;2022-08-07T15:40:44;4.00;;;2.62;;
48181;SDS011;33976;47.436;18.876;2022-08-07T15:43:27;3.33;;;2.22;;
48181;SDS011;33976;47.436;18.876;2022-08-07T15:46:16;3.20;;;2.12;;
48181;SDS011;33976;47.436;18.876;2022-08-07T15:49:06;4.22;;;2.33;;
48181;SDS011;33976;47.436;18.876;2022-08-07T15:51:41;3.10;;;2.05;;
48181;SDS011;33976;47.436;18.876;2022-08-07T15:54:35;4.97;;;1.90;;
48181;SDS011;33976;47.436;18.876;2022-08-07T15:57:08;3.47;;;1.80;;
48181;SDS011;33976;47.436;18.876;2022-08-07T15:59:58;4.35;;;2.25;;
48181;SDS011;33976;47.436;18.876;2022-08-07T16:02:42;4.18;;;2.35;;
48181;SDS011;33976;47.436;18.876;2022-08-07T16:05:16;2.92;;;2.05;;
48181;SDS011;33976;47.436;18.876;2022-08-07T16:08:03;3.17;;;2.10;;
48181;SDS011;33976;47.436;18.876;2022-08-07T16:10:59;2.78;;;2.08;;
48181;SDS011;33976;47.436;18.876;2022-08-07T16:16:37;2.85;;;2.00;;
48181;SDS011;33976;47.436;18.876;2022-08-07T16:23:23;3.42;;;2.17;;
48181;SDS011;33976;47.436;18.876;2022-08-07T16:32:13;2.85;;;2.10;;
48181;SDS011;33976;47.436;18.876;2022-08-07T16:38:08;3.25;;;2.22;;
48181;SDS011;33976;47.436;18.876;2022-08-07T16:56:18;4.60;;;2.33;;
48181;SDS011;33976;47.436;18.876;2022-08-07T16:59:04;3.95;;;2.47;;
48181;SDS011;33976;47.436;18.876;2022-08-07T17:07:17;2.85;;;2.12;;
48181;SDS011;33976;47.436;18.876;2022-08-07T17:10:14;5.00;;;2.35;;
48181;SDS011;33976;47.436;18.876;2022-08-07T17:15:44;3.55;;;1.90;;
48181;SDS011;33976;47.436;18.876;2022-08-07T17:20:55;3.95;;;2.30;;
48181;SDS011;33976;47.436;18.876;2022-08-07T17:23:26;4.03;;;2.28;;
48181;SDS011;33976;47.436;18.876;2022-08-07T17:26:20;2.95;;;2.35;;
48181;SDS011;33976;47.436;18.876;2022-08-07T17:35:12;3.25;;;2.28;;
48181;SDS011;33976;47.436;18.876;2022-08-07T17:41:01;3.22;;;2.10;;
48181;SDS011;33976;47.436;18.876;2022-08-07T17:44:19;3.42;;;2.70;;
48181;SDS011;33976;47.436;18.876;2022-08-07T17:47:10;4.15;;;2.60;;
48181;SDS011;33976;47.436;18.876;2022-08-07T17:50:23;3.47;;;2.15;;
48181;SDS011;33976;47.436;18.876;2022-08-07T17:53:05;6.53;;;2.90;;
48181;SDS011;33976;47.436;18.876;2022-08-07T17:56:06;5.28;;;3.20;;
48181;SDS011;33976;47.436;18.876;2022-08-07T18:01:25;3.05;;;2.10;;
48181;SDS011;33976;47.436;18.876;2022-08-07T18:10:22;3.03;;;2.15;;
48181;SDS011;33976;47.436;18.876;2022-08-07T18:15:29;4.37;;;2.45;;
48181;SDS011;33976;47.436;18.876;2022-08-07T18:18:24;4.90;;;2.90;;
48181;SDS011;33976;47.436;18.876;2022-08-07T18:21:16;4.18;;;2.45;;
48181;SDS011;33976;47.436;18.876;2022-08-07T18:24:15;3.37;;;2.00;;
48181;SDS011;33976;47.436;18.876;2022-08-07T18:27:46;3.60;;;2.37;;
48181;SDS011;33976;47.436;18.876;2022-08-07T18:30:06;3.92;;;2.28;;
48181;SDS011;33976;47.436;18.876;2022-08-07T18:36:06;4.90;;;2.10;;
48181;SDS011;33976;47.436;18.876;2022-08-07T18:39:10;4.37;;;1.98;;
48181;SDS011;33976;47.436;18.876;2022-08-07T18:48:02;4.25;;;2.17;;
48181;SDS011;33976;47.436;18.876;2022-08-07T19:00:05;6.62;;;1.87;;
48181;SDS011;33976;47.436;18.876;2022-08-07T19:03:04;3.03;;;1.98;;
48181;SDS011;33976;47.436;18.876;2022-08-07T19:08:43;3.70;;;2.40;;
48181;SDS011;33976;47.436;18.876;2022-08-07T19:11:19;3.30;;;1.90;;
48181;SDS011;33976;47.436;18.876;2022-08-07T19:14:11;2.20;;;1.52;;
48181;SDS011;33976;47.436;18.876;2022-08-07T19:19:40;3.40;;;1.80;;
48181;SDS011;33976;47.436;18.876;2022-08-07T19:22:34;3.12;;;1.90;;
48181;SDS011;33976;47.436;18.876;2022-08-07T19:25:10;3.10;;;1.87;;
48181;SDS011;33976;47.436;18.876;2022-08-07T19:28:00;3.70;;;2.17;;
48181;SDS011;33976;47.436;18.876;2022-08-07T19:30:55;3.87;;;1.95;;
48181;SDS011;33976;47.436;18.876;2022-08-07T19:33:46;4.20;;;2.30;;
48181;SDS011;33976;47.436;18.876;2022-08-07T19:36:25;4.57;;;2.10;;
48181;SDS011;33976;47.436;18.876;2022-08-07T19:38:54;2.28;;;1.75;;
48181;SDS011;33976;47.436;18.876;2022-08-07T19:41:26;3.50;;;2.10;;
48181;SDS011;33976;47.436;18.876;2022-08-07T19:44:23;2.87;;;1.98;;
48181;SDS011;33976;47.436;18.876;2022-08-07T19:47:04;3.67;;;2.05;;
48181;SDS011;33976;47.436;18.876;2022-08-07T19:49:45;2.55;;;1.50;;
48181;SDS011;33976;47.436;18.876;2022-08-07T19:52:26;4.07;;;2.20;;
48181;SDS011;33976;47.436;18.876;2022-08-07T19:54:55;2.83;;;1.80;;
48181;SDS011;33976;47.436;18.876;2022-08-07T20:00:19;2.85;;;1.92;;
48181;SDS011;33976;47.436;18.876;2022-08-07T20:02:59;3.90;;;1.80;;
48181;SDS011;33976;47.436;18.876;2022-08-07T20:05:34;4.75;;;2.28;;
48181;SDS011;33976;47.436;18.876;2022-08-07T20:08:32;2.72;;;1.70;;